Time;durP1;ratioP1;P1;durP2;ratioP2;P2;SDS_P1;SDS_P2;PMS_P1;PMS_P2;Temp;Humidity;BMP_temperature;BMP_pressure;BME280_temperature;BME280_humidity;BME280_pressure;Samples;Min_cycle;Max_cycle;Signal;HPM_P1;HPM_P2
2022/08/07 00:01:09;;;;;;;1.60;1.50;;;15.50;52.70;;;;;;625957;229;26575;-65
2022/08/07 00:03:37;;;;;;;1.90;1.80;;;15.50;52.90;;;;;;625635;230;26579;-65
2022/08/07 00:06:07;;;;;;;2.28;1.65;;;15.50;53.20;;;;;;625542;230;26587;-65
2022/08/07 00:08:35;;;;;;;1.70;1.60;;;15.40;53.10;;;;;;625632;229;26513;-65
2022/08/07 00:11:01;;;;;;;2.00;1.90;;;15.40;53.20;;;;;;625511;229;26760;-65
2022/08/07 00:13:28;;;;;;;1.83;1.73;;;15.40;53.20;;;;;;625595;230;26534;-65
2022/08/07 00:15:55;;;;;;;1.67;1.58;;;15.40;53.10;;;;;;628237;225;26770;-65
2022/08/07 00:18:23;;;;;;;1.87;1.67;;;15.40;53.20;;;;;;625061;230;26760;-65
2022/08/07 00:20:50;;;;;;;1.98;1.80;;;15.40;53.40;;;;;;625838;230;26525;-65
2022/08/07 00:23:17;;;;;;;2.45;1.83;;;15.40;53.50;;;;;;626207;230;26918;-65
2022/08/07 00:25:45;;;;;;;2.00;1.90;;;15.50;53.50;;;;;;626371;230;26580;-65
2022/08/07 00:28:12;;;;;;;1.58;1.48;;;15.50;53.20;;;;;;626898;227;26547;-66
2022/08/07 00:30:39;;;;;;;2.05;1.73;;;15.50;53.40;;;;;;630442;225;26789;-66
2022/08/07 00:33:06;;;;;;;1.67;1.58;;;15.40;53.20;;;;;;626308;225;26544;-65
2022/08/07 00:35:34;;;;;;;8.88;2.40;;;15.50;53.40;;;;;;624725;230;26576;-65
2022/08/07 00:38:01;;;;;;;5.72;2.03;;;15.40;53.50;;;;;;639024;223;26830;-65
2022/08/07 00:40:29;;;;;;;5.95;2.05;;;15.40;53.60;;;;;;638984;225;26554;-65
2022/08/07 00:42:56;;;;;;;7.05;2.10;;;15.40;53.60;;;;;;639008;225;26592;-65
2022/08/07 00:45:24;;;;;;;2.53;1.80;;;15.30;54.20;;;;;;639031;225;26577;-65
2022/08/07 00:47:52;;;;;;;2.20;1.58;;;15.30;54.20;;;;;;638993;225;26585;-65
2022/08/07 00:50:19;;;;;;;2.60;1.62;;;15.20;54.90;;;;;;638955;225;26586;-65
2022/08/07 00:52:47;;;;;;;2.08;1.58;;;15.20;55.20;;;;;;638944;225;26575;-65
2022/08/07 00:55:16;;;;;;;2.58;1.70;;;15.20;55.20;;;;;;638991;225;26607;-65
2022/08/07 00:57:42;;;;;;;1.40;1.30;;;15.20;55.20;;;;;;638992;225;26594;-65
2022/08/07 01:00:10;;;;;;;2.80;1.50;;;15.20;55.20;;;;;;639118;225;26585;-65
2022/08/07 01:02:38;;;;;;;1.60;1.50;;;15.10;54.90;;;;;;639064;225;26634;-65
2022/08/07 01:05:06;;;;;;;1.98;1.60;;;15.10;54.80;;;;;;639023;225;26840;-65
2022/08/07 01:07:33;;;;;;;1.42;1.33;;;15.00;54.80;;;;;;639048;225;26577;-65
2022/08/07 01:10:00;;;;;;;1.60;1.50;;;15.00;55.00;;;;;;640410;223;26824;-65
2022/08/07 01:12:27;;;;;;;1.50;1.40;;;15.00;55.20;;;;;;640389;224;26525;-65
2022/08/07 01:14:57;;;;;;;1.60;1.50;;;15.00;55.30;;;;;;640106;225;27172;-65
2022/08/07 01:17:21;;;;;;;1.45;1.35;;;15.00;55.40;;;;;;639848;225;26559;-65
2022/08/07 01:19:49;;;;;;;2.25;1.48;;;15.10;55.30;;;;;;639728;225;26516;-65
2022/08/07 01:22:17;;;;;;;1.48;1.48;;;15.00;55.50;;;;;;639686;225;26485;-65
2022/08/07 01:24:45;;;;;;;1.33;1.23;;;14.90;55.70;;;;;;639745;225;26527;-65
2022/08/07 01:27:13;;;;;;;1.37;1.27;;;14.80;55.90;;;;;;639539;225;26525;-65
2022/08/07 01:29:40;;;;;;;2.35;1.55;;;14.80;55.90;;;;;;639372;225;26524;-65
2022/08/07 01:32:07;;;;;;;1.40;1.27;;;14.80;56.00;;;;;;639359;223;26613;-65
2022/08/07 01:34:34;;;;;;;1.60;1.30;;;14.80;56.40;;;;;;639404;225;26834;-65
2022/08/07 01:37:01;;;;;;;2.30;1.62;;;14.80;56.60;;;;;;639435;225;26592;-65
2022/08/07 01:39:29;;;;;;;1.65;1.20;;;14.80;57.00;;;;;;639274;225;26913;-65
2022/08/07 01:41:56;;;;;;;1.45;1.08;;;14.80;57.00;;;;;;639399;225;26595;-65
2022/08/07 01:44:23;;;;;;;1.35;1.25;;;14.80;56.80;;;;;;639381;225;26809;-65
2022/08/07 01:46:51;;;;;;;1.45;1.30;;;14.80;57.30;;;;;;639032;225;26552;-65
2022/08/07 01:49:18;;;;;;;1.20;1.10;;;14.80;57.70;;;;;;639045;225;26823;-65
2022/08/07 01:51:45;;;;;;;1.58;1.10;;;14.80;57.30;;;;;;639051;225;26570;-65
2022/08/07 01:54:12;;;;;;;1.23;1.23;;;14.70;56.90;;;;;;639005;225;26862;-65
2022/08/07 01:56:40;;;;;;;1.92;1.15;;;14.70;57.00;;;;;;639286;225;26579;-65
2022/08/07 01:59:07;;;;;;;1.20;1.20;;;14.60;57.20;;;;;;638946;225;26552;-65
2022/08/07 02:01:35;;;;;;;1.95;1.37;;;14.50;58.30;;;;;;639297;225;26566;-65
2022/08/07 02:04:03;;;;;;;1.12;1.12;;;14.50;58.30;;;;;;638952;225;26788;-65
2022/08/07 02:06:30;;;;;;;1.83;1.58;;;14.50;58.90;;;;;;638491;225;26594;-65
2022/08/07 02:08:58;;;;;;;1.98;1.23;;;14.50;58.10;;;;;;639100;225;26811;-65
2022/08/07 02:11:24;;;;;;;1.77;1.67;;;14.50;58.00;;;;;;638913;225;26591;-65
2022/08/07 02:13:51;;;;;;;3.12;1.30;;;14.50;58.00;;;;;;639078;225;27266;-65
2022/08/07 02:16:19;;;;;;;1.50;1.30;;;14.50;58.50;;;;;;638933;225;26554;-65
2022/08/07 02:18:46;;;;;;;2.05;1.40;;;14.50;58.40;;;;;;639003;225;26836;-65
2022/08/07 02:21:13;;;;;;;1.45;1.35;;;14.50;58.90;;;;;;640145;223;26605;-65
2022/08/07 02:23:40;;;;;;;1.33;1.23;;;14.50;58.60;;;;;;640419;224;26787;-65
2022/08/07 02:26:08;;;;;;;1.50;1.20;;;14.50;59.60;;;;;;640111;225;26548;-65
2022/08/07 02:28:36;;;;;;;2.67;1.25;;;14.40;59.10;;;;;;640094;225;26563;-65
2022/08/07 02:31:05;;;;;;;1.30;1.20;;;14.40;59.40;;;;;;639705;225;26533;-65
2022/08/07 02:33:33;;;;;;;0.90;0.90;;;14.40;58.90;;;;;;639760;225;26541;-65
2022/08/07 02:36:01;;;;;;;1.85;1.23;;;14.40;58.80;;;;;;639763;225;26786;-65
2022/08/07 02:38:28;;;;;;;2.17;1.00;;;14.40;59.40;;;;;;639694;225;26508;-65
2022/08/07 02:40:56;;;;;;;1.10;1.10;;;14.40;59.30;;;;;;639317;225;26564;-65
2022/08/07 02:43:23;;;;;;;1.27;1.05;;;14.40;59.90;;;;;;639412;225;26797;-65
2022/08/07 02:45:51;;;;;;;1.52;1.30;;;14.30;60.90;;;;;;639407;225;26551;-65
2022/08/07 02:48:19;;;;;;;1.27;1.05;;;14.30;60.40;;;;;;639360;225;26552;-65
2022/08/07 02:50:47;;;;;;;1.30;1.20;;;14.30;60.90;;;;;;639351;225;26508;-66
2022/08/07 02:53:15;;;;;;;1.15;0.90;;;14.20;61.70;;;;;;639219;225;26616;-65
2022/08/07 02:55:42;;;;;;;0.88;0.88;;;14.20;61.80;;;;;;639223;225;26590;-66
2022/08/07 02:58:10;;;;;;;1.23;1.20;;;14.20;62.40;;;;;;638953;225;26596;-65
2022/08/07 03:00:37;;;;;;;1.02;1.00;;;14.20;61.30;;;;;;639020;225;26834;-65
2022/08/07 03:03:04;;;;;;;1.40;1.02;;;14.20;61.80;;;;;;639060;225;26585;-66
2022/08/07 03:05:31;;;;;;;1.62;1.10;;;14.20;61.60;;;;;;638934;225;26826;-66
2022/08/07 03:07:59;;;;;;;1.12;1.10;;;14.20;62.20;;;;;;639075;225;26586;-65
2022/08/07 03:10:26;;;;;;;1.35;1.12;;;14.10;63.20;;;;;;639089;225;26835;-65
2022/08/07 03:12:54;;;;;;;1.12;1.02;;;14.10;63.70;;;;;;638996;225;26579;-65
2022/08/07 03:15:22;;;;;;;1.10;1.10;;;14.10;62.60;;;;;;639080;225;26587;-65
2022/08/07 03:17:50;;;;;;;1.20;1.10;;;14.10;63.10;;;;;;639095;225;26598;-65
2022/08/07 03:20:18;;;;;;;0.80;0.80;;;14.00;64.40;;;;;;638935;225;26553;-65
2022/08/07 03:22:45;;;;;;;1.62;1.30;;;14.00;64.40;;;;;;638991;225;26581;-65
2022/08/07 03:25:13;;;;;;;1.35;1.12;;;14.00;64.60;;;;;;639110;225;26595;-65
2022/08/07 03:27:41;;;;;;;1.35;1.25;;;14.00;65.50;;;;;;639043;225;26583;-65
2022/08/07 03:30:10;;;;;;;1.50;1.40;;;14.10;65.10;;;;;;639012;225;26584;-65
2022/08/07 03:32:37;;;;;;;1.27;1.17;;;14.10;65.10;;;;;;639946;223;27180;-65
2022/08/07 03:35:05;;;;;;;1.60;1.50;;;14.10;64.80;;;;;;640493;224;26528;-65
2022/08/07 03:37:32;;;;;;;1.58;1.48;;;14.10;65.50;;;;;;640122;225;26541;-65
2022/08/07 03:39:59;;;;;;;0.98;0.95;;;14.10;64.20;;;;;;639967;225;26800;-65
2022/08/07 03:42:26;;;;;;;1.42;1.33;;;14.00;64.70;;;;;;639686;225;26544;-65
2022/08/07 03:44:54;;;;;;;1.20;1.10;;;13.90;63.90;;;;;;639608;225;27088;-65
2022/08/07 03:47:21;;;;;;;1.50;1.30;;;13.90;64.20;;;;;;639548;225;26540;-65
2022/08/07 03:49:48;;;;;;;1.10;1.10;;;13.90;64.70;;;;;;639606;225;26540;-65
2022/08/07 03:52:16;;;;;;;1.08;1.08;;;13.80;65.50;;;;;;639358;225;26599;-65
2022/08/07 03:54:44;;;;;;;1.20;1.20;;;13.80;67.00;;;;;;639426;225;26580;-65
2022/08/07 03:57:12;;;;;;;1.25;1.10;;;13.80;66.40;;;;;;639376;225;26548;-65
2022/08/07 03:59:40;;;;;;;1.37;1.27;;;13.90;66.80;;;;;;639418;225;26580;-65
2022/08/07 04:02:08;;;;;;;1.20;1.10;;;13.80;66.40;;;;;;639379;225;26806;-65
2022/08/07 04:04:35;;;;;;;1.85;1.42;;;13.90;66.80;;;;;;639410;225;26613;-65
2022/08/07 04:07:03;;;;;;;1.35;1.25;;;13.90;65.60;;;;;;639393;225;26550;-65
2022/08/07 04:09:29;;;;;;;1.20;1.10;;;13.90;66.10;;;;;;639109;225;26813;-65
2022/08/07 04:11:56;;;;;;;1.08;1.00;;;14.00;66.60;;;;;;639081;225;26547;-65
2022/08/07 04:14:24;;;;;;;1.25;1.15;;;14.00;66.50;;;;;;639072;225;26845;-65
2022/08/07 04:16:51;;;;;;;2.65;1.40;;;14.00;65.90;;;;;;638899;225;26587;-65
2022/08/07 04:19:18;;;;;;;1.20;1.20;;;14.00;65.50;;;;;;639104;225;26792;-65
2022/08/07 04:21:45;;;;;;;1.65;1.50;;;14.00;66.20;;;;;;639042;225;26582;-65
2022/08/07 04:24:12;;;;;;;1.85;1.52;;;14.10;66.80;;;;;;639004;221;26845;-65
2022/08/07 04:26:40;;;;;;;1.10;1.10;;;14.10;66.80;;;;;;639067;225;26572;-65
2022/08/07 04:29:08;;;;;;;1.45;1.35;;;14.20;67.00;;;;;;639041;225;26588;-65
2022/08/07 04:31:38;;;;;;;1.50;1.40;;;14.20;67.10;;;;;;639033;225;26807;-65
2022/08/07 04:34:05;;;;;;;1.40;1.30;;;14.30;65.50;;;;;;639014;225;26609;-65
2022/08/07 04:36:33;;;;;;;1.10;1.10;;;14.30;65.70;;;;;;639287;225;26621;-65
2022/08/07 04:39:01;;;;;;;1.37;1.23;;;14.40;65.60;;;;;;639356;225;26582;-65
2022/08/07 04:41:28;;;;;;;1.70;1.48;;;14.50;65.50;;;;;;639329;225;26569;-65
2022/08/07 04:43:55;;;;;;;1.48;1.37;;;14.60;64.20;;;;;;640115;223;26582;-65
2022/08/07 04:46:30;;;;;;;1.30;1.20;;;14.70;64.20;;;;;;640892;224;26545;-65
2022/08/07 04:49:03;;;;;;;1.67;1.52;;;14.70;63.60;;;;;;639934;225;26543;-64
2022/08/07 04:51:52;;;;;;;1.17;1.17;;;14.70;63.70;;;;;;639461;225;26563;-64
2022/08/07 04:54:28;;;;;;;1.62;1.52;;;14.80;62.00;;;;;;638476;225;26539;-64
2022/08/07 04:56:57;;;;;;;1.50;1.40;;;14.90;61.20;;;;;;639446;225;26726;-64
2022/08/07 04:59:34;;;;;;;1.30;1.30;;;14.90;62.10;;;;;;638487;225;27199;-65
2022/08/07 05:02:13;;;;;;;1.80;1.70;;;15.00;62.90;;;;;;639612;225;27168;-64
2022/08/07 05:05:03;;;;;;;1.67;1.58;;;15.20;61.30;;;;;;637460;225;26625;-64
2022/08/07 05:07:34;;;;;;;1.83;1.67;;;15.20;61.20;;;;;;637597;225;26792;-65
2022/08/07 05:10:04;;;;;;;1.55;1.45;;;15.40;60.90;;;;;;639277;225;26583;-65
2022/08/07 05:12:37;;;;;;;2.03;1.45;;;15.50;59.40;;;;;;638868;225;26537;-65
2022/08/07 05:15:15;;;;;;;1.52;1.33;;;15.50;59.40;;;;;;639253;225;26549;-65
2022/08/07 05:17:33;;;;;;;1.67;1.58;;;15.60;59.40;;;;;;638593;225;26573;-64
2022/08/07 05:20:00;;;;;;;1.73;1.62;;;15.70;59.60;;;;;;639240;225;26793;-64
2022/08/07 05:22:28;;;;;;;1.92;1.83;;;15.70;59.10;;;;;;639111;225;26582;-64
2022/08/07 05:24:56;;;;;;;1.95;1.55;;;15.90;59.10;;;;;;639091;225;26596;-64
2022/08/07 05:27:23;;;;;;;1.35;1.25;;;15.90;59.10;;;;;;639020;225;26625;-65
2022/08/07 05:29:50;;;;;;;1.67;1.58;;;16.00;58.30;;;;;;639101;225;26554;-65
2022/08/07 05:32:18;;;;;;;1.70;1.60;;;16.10;57.80;;;;;;638971;225;26826;-65
2022/08/07 05:34:45;;;;;;;1.90;1.55;;;16.30;58.10;;;;;;639100;225;26614;-66
2022/08/07 05:37:13;;;;;;;1.85;1.73;;;16.40;57.80;;;;;;639103;225;26627;-66
2022/08/07 05:39:41;;;;;;;1.52;1.52;;;16.50;57.00;;;;;;639063;225;26553;-66
2022/08/07 05:42:09;;;;;;;1.62;1.40;;;16.70;57.30;;;;;;638989;225;26588;-66
2022/08/07 05:44:37;;;;;;;1.52;1.42;;;16.80;56.30;;;;;;639090;225;26595;-66
2022/08/07 05:47:05;;;;;;;1.42;1.37;;;16.80;56.30;;;;;;639239;225;26579;-66
2022/08/07 05:49:33;;;;;;;1.50;1.40;;;17.00;56.60;;;;;;639366;225;26561;-66
2022/08/07 05:52:00;;;;;;;2.10;1.42;;;17.00;56.60;;;;;;639303;225;26798;-66
2022/08/07 05:54:27;;;;;;;2.05;1.70;;;17.10;55.10;;;;;;639347;225;26595;-66
2022/08/07 05:56:55;;;;;;;1.60;1.50;;;17.20;56.10;;;;;;641065;223;26806;-66
2022/08/07 05:59:22;;;;;;;1.60;1.50;;;17.30;54.70;;;;;;640624;224;26504;-66
2022/08/07 06:01:49;;;;;;;1.52;1.50;;;17.40;54.50;;;;;;640247;225;26787;-66
2022/08/07 06:04:16;;;;;;;1.70;1.60;;;17.50;54.10;;;;;;640228;225;26600;-66
2022/08/07 06:06:43;;;;;;;1.60;1.50;;;17.70;53.20;;;;;;639559;225;27281;-66
2022/08/07 06:09:11;;;;;;;1.77;1.67;;;17.70;52.80;;;;;;639723;225;26501;-66
2022/08/07 06:11:38;;;;;;;1.73;1.62;;;17.90;53.80;;;;;;639636;225;26536;-66
2022/08/07 06:14:06;;;;;;;1.80;1.70;;;18.10;52.60;;;;;;639420;225;26631;-66
2022/08/07 06:16:34;;;;;;;1.80;1.70;;;18.30;52.10;;;;;;639309;225;26543;-66
2022/08/07 06:19:02;;;;;;;2.67;1.70;;;18.40;51.90;;;;;;639407;225;26564;-66
2022/08/07 06:21:29;;;;;;;1.40;1.40;;;18.30;51.80;;;;;;639272;225;26541;-66
2022/08/07 06:23:57;;;;;;;1.42;1.42;;;18.50;51.00;;;;;;639320;225;26641;-65
2022/08/07 06:26:23;;;;;;;1.30;1.30;;;18.60;51.50;;;;;;639330;225;26788;-65
2022/08/07 06:28:51;;;;;;;1.55;1.45;;;18.70;50.70;;;;;;639304;225;26599;-66
2022/08/07 06:31:18;;;;;;;1.23;1.20;;;18.80;50.10;;;;;;639181;225;26790;-65
2022/08/07 06:33:46;;;;;;;1.73;1.40;;;18.90;50.60;;;;;;638972;225;26601;-65
2022/08/07 06:36:13;;;;;;;1.60;1.50;;;19.00;50.80;;;;;;638948;225;26615;-66
2022/08/07 06:38:41;;;;;;;1.37;1.27;;;19.20;49.80;;;;;;638993;225;26632;-66
2022/08/07 06:41:09;;;;;;;1.70;1.60;;;19.30;50.90;;;;;;638865;225;26778;-66
2022/08/07 06:43:37;;;;;;;1.48;1.37;;;19.20;50.80;;;;;;638871;225;26820;-65
2022/08/07 06:46:04;;;;;;;1.42;1.30;;;19.30;49.40;;;;;;638891;225;26540;-65
2022/08/07 06:48:32;;;;;;;1.02;1.02;;;19.50;48.90;;;;;;631250;225;26595;-65
2022/08/07 06:51:00;;;;;;;1.92;1.50;;;19.60;49.40;;;;;;632034;225;26540;-65
2022/08/07 06:53:28;;;;;;;1.52;1.30;;;19.70;48.90;;;;;;627498;226;26600;-65
2022/08/07 06:55:56;;;;;;;1.50;1.40;;;19.80;48.10;;;;;;628332;226;26601;-65
2022/08/07 06:58:23;;;;;;;1.30;1.30;;;19.80;48.00;;;;;;629775;227;26558;-64
2022/08/07 07:00:50;;;;;;;2.28;1.37;;;19.80;48.10;;;;;;632335;226;26507;-67
2022/08/07 07:03:17;;;;;;;2.00;1.52;;;19.90;48.40;;;;;;628552;226;26860;-67
2022/08/07 07:05:45;;;;;;;2.33;1.50;;;20.00;48.00;;;;;;633211;225;26542;-68
2022/08/07 07:08:12;;;;;;;1.23;1.17;;;20.00;49.30;;;;;;632074;225;27224;-68
2022/08/07 07:10:39;;;;;;;1.45;1.35;;;20.10;47.50;;;;;;629754;226;26555;-67
2022/08/07 07:13:07;;;;;;;1.35;1.25;;;20.20;46.90;;;;;;631606;225;26840;-68
2022/08/07 07:15:34;;;;;;;1.30;1.30;;;20.30;47.30;;;;;;630277;225;26603;-68
2022/08/07 07:18:03;;;;;;;1.45;1.35;;;20.40;48.10;;;;;;630312;225;27224;-68
2022/08/07 07:20:41;;;;;;;1.80;1.70;;;20.50;47.50;;;;;;630831;225;26639;-67
2022/08/07 07:23:08;;;;;;;1.40;1.15;;;20.50;46.40;;;;;;630247;225;26597;-67
2022/08/07 07:25:36;;;;;;;1.33;1.20;;;20.60;46.30;;;;;;627411;225;26890;-67
2022/08/07 07:28:05;;;;;;;2.65;1.40;;;20.60;46.50;;;;;;628736;227;26603;-67
2022/08/07 07:30:33;;;;;;;2.05;1.48;;;20.70;46.20;;;;;;627909;226;26537;-68
2022/08/07 07:33:02;;;;;;;1.52;1.48;;;20.90;45.60;;;;;;629307;224;26600;-68
2022/08/07 07:35:29;;;;;;;1.55;1.45;;;20.80;45.50;;;;;;627498;226;26521;-69
2022/08/07 07:37:56;;;;;;;3.10;1.52;;;20.80;46.30;;;;;;629952;225;26604;-68
2022/08/07 07:40:25;;;;;;;1.40;1.30;;;20.90;46.00;;;;;;629677;225;26611;-67
2022/08/07 07:42:53;;;;;;;1.52;1.45;;;20.90;45.50;;;;;;630399;225;26624;-64
2022/08/07 07:45:21;;;;;;;1.95;1.50;;;20.90;45.50;;;;;;627784;226;26819;-65
2022/08/07 07:47:50;;;;;;;3.45;1.77;;;21.00;44.70;;;;;;627895;226;26599;-66
2022/08/07 07:50:17;;;;;;;4.00;1.45;;;21.10;45.50;;;;;;627784;225;26596;-66
2022/08/07 07:52:45;;;;;;;3.12;1.15;;;21.10;44.60;;;;;;628301;226;26881;-66
2022/08/07 07:55:13;;;;;;;1.75;1.40;;;21.20;45.30;;;;;;633797;226;26834;-67
2022/08/07 07:57:41;;;;;;;1.58;1.42;;;21.20;45.20;;;;;;635379;226;26962;-67
2022/08/07 08:00:09;;;;;;;1.60;1.45;;;21.20;45.20;;;;;;635453;226;26747;-67
2022/08/07 08:02:36;;;;;;;1.52;1.10;;;21.30;44.50;;;;;;633981;227;26584;-67
2022/08/07 08:05:04;;;;;;;1.83;1.40;;;21.30;45.10;;;;;;634093;226;26832;-67
2022/08/07 08:07:34;;;;;;;2.08;1.20;;;21.30;44.80;;;;;;626086;226;26617;-67
2022/08/07 08:10:00;;;;;;;1.52;1.42;;;21.40;44.70;;;;;;624565;230;26586;-66
2022/08/07 08:12:27;;;;;;;1.52;1.40;;;21.40;44.70;;;;;;601388;237;26580;-68
2022/08/07 08:14:55;;;;;;;11.25;3.08;;;21.40;43.50;;;;;;628126;229;26512;-65
2022/08/07 08:17:22;;;;;;;85.70;19.75;;;21.40;43.30;;;;;;624752;230;26597;-65
2022/08/07 08:19:49;;;;;;;114.12;25.10;;;21.40;42.70;;;;;;626168;228;26592;-67
2022/08/07 08:27:23;;;;;;;68.90;16.00;;;21.50;43.90;;;;;;613723;234;26553;-66
2022/08/07 08:29:51;;;;;;;55.40;10.60;;;21.60;46.80;;;;;;612125;234;26584;-67
2022/08/07 08:32:19;;;;;;;15.75;4.95;;;21.60;46.80;;;;;;621189;230;26873;-67
2022/08/07 08:34:46;;;;;;;17.95;4.40;;;21.70;46.10;;;;;;614885;231;26603;-67
2022/08/07 08:37:13;;;;;;;19.55;4.22;;;21.70;49.20;;;;;;618481;230;26801;-67
2022/08/07 08:39:40;;;;;;;13.65;3.85;;;21.80;47.30;;;;;;613323;233;26586;-66
2022/08/07 08:42:08;;;;;;;5.43;2.37;;;21.80;46.90;;;;;;602862;235;26981;-67
2022/08/07 08:44:37;;;;;;;4.68;1.70;;;21.80;43.70;;;;;;622156;231;26552;-67
2022/08/07 08:47:08;;;;;;;6.57;2.33;;;21.90;45.00;;;;;;632713;227;26561;-67
2022/08/07 08:49:36;;;;;;;3.00;1.67;;;21.90;44.60;;;;;;633969;227;26554;-67
2022/08/07 08:52:21;;;;;;;2.25;1.17;;;22.10;43.00;;;;;;633845;227;26535;-67
2022/08/07 08:55:07;;;;;;;2.10;1.42;;;22.00;42.80;;;;;;626633;226;26630;-67
2022/08/07 08:57:37;;;;;;;2.45;1.55;;;22.30;44.20;;;;;;621550;230;26635;-67
2022/08/07 09:00:07;;;;;;;1.75;1.33;;;22.30;44.20;;;;;;601259;239;26591;-67
2022/08/07 09:02:44;;;;;;;2.10;1.30;;;22.40;42.50;;;;;;628111;229;26804;-67
2022/08/07 09:05:25;;;;;;;1.62;1.30;;;22.50;42.70;;;;;;624255;230;26582;-67
2022/08/07 09:08:27;;;;;;;3.78;1.35;;;22.50;42.00;;;;;;623860;230;26598;-67
2022/08/07 09:11:19;;;;;;;1.33;1.20;;;22.50;42.00;;;;;;600732;234;26595;-67
2022/08/07 09:14:11;;;;;;;2.33;1.15;;;22.50;40.30;;;;;;627718;225;26621;-66
2022/08/07 09:16:44;;;;;;;1.37;1.27;;;22.50;41.00;;;;;;626904;226;26584;-67
2022/08/07 09:19:26;;;;;;;1.12;1.12;;;22.10;40.20;;;;;;625084;230;26616;-66
2022/08/07 09:21:55;;;;;;;1.50;1.20;;;22.10;40.20;;;;;;619093;230;26588;-67
2022/08/07 09:24:41;;;;;;;2.80;1.25;;;21.70;40.30;;;;;;625140;226;26547;-66
2022/08/07 09:27:10;;;;;;;1.92;1.37;;;21.50;40.60;;;;;;619079;230;26590;-66
2022/08/07 09:29:40;;;;;;;1.25;1.25;;;21.30;40.60;;;;;;625145;228;26816;-66
2022/08/07 09:32:20;;;;;;;1.10;1.00;;;21.30;40.50;;;;;;626673;229;26541;-66
2022/08/07 09:34:51;;;;;;;1.60;1.10;;;21.30;40.40;;;;;;628472;226;26932;-68
2022/08/07 09:37:20;;;;;;;1.27;1.10;;;21.10;40.20;;;;;;613090;233;26987;-67
2022/08/07 09:40:05;;;;;;;1.85;1.35;;;21.30;40.30;;;;;;616217;230;26935;-67
2022/08/07 09:43:05;;;;;;;2.85;1.45;;;21.40;40.00;;;;;;628701;226;26569;-66
2022/08/07 09:45:40;;;;;;;1.20;1.10;;;21.80;40.00;;;;;;618369;225;26580;-67
2022/08/07 09:48:19;;;;;;;1.30;1.20;;;22.00;39.40;;;;;;629675;226;26556;-67
2022/08/07 09:50:53;;;;;;;1.98;1.40;;;22.40;40.20;;;;;;627122;228;26512;-66
2022/08/07 09:53:22;;;;;;;1.58;1.35;;;22.40;40.30;;;;;;628254;226;26517;-66
2022/08/07 09:55:54;;;;;;;1.15;1.15;;;22.60;39.10;;;;;;628650;225;26585;-68
2022/08/07 09:58:28;;;;;;;1.87;1.17;;;22.90;40.40;;;;;;628061;226;26880;-67
2022/08/07 10:01:01;;;;;;;1.10;1.00;;;23.10;40.20;;;;;;633833;226;26830;-66
2022/08/07 10:03:35;;;;;;;1.25;1.15;;;23.30;37.90;;;;;;635270;226;26626;-66
2022/08/07 10:06:05;;;;;;;1.12;1.02;;;23.30;37.90;;;;;;633867;227;26546;-67
2022/08/07 10:08:43;;;;;;;1.92;1.10;;;23.30;37.50;;;;;;633411;227;26595;-67
2022/08/07 10:11:13;;;;;;;1.00;1.00;;;23.00;37.00;;;;;;633709;227;27256;-67
2022/08/07 10:13:44;;;;;;;1.52;1.05;;;22.60;37.70;;;;;;625614;227;26845;-67
2022/08/07 10:16:20;;;;;;;2.70;1.15;;;22.40;37.30;;;;;;624593;230;26763;-67
2022/08/07 10:18:55;;;;;;;1.40;1.30;;;22.50;38.00;;;;;;624874;230;26561;-67
2022/08/07 10:21:26;;;;;;;1.42;1.08;;;22.50;38.00;;;;;;625089;226;26579;-68
2022/08/07 10:23:59;;;;;;;1.27;1.27;;;22.40;37.60;;;;;;624837;230;26658;-67
2022/08/07 10:26:29;;;;;;;1.08;1.00;;;22.40;38.40;;;;;;629698;227;26533;-67
2022/08/07 10:29:03;;;;;;;1.60;1.30;;;22.40;38.50;;;;;;631921;227;26805;-67
2022/08/07 10:31:51;;;;;;;1.37;1.08;;;22.40;38.70;;;;;;624606;227;26827;-67
2022/08/07 10:34:35;;;;;;;1.80;1.12;;;22.50;39.20;;;;;;604340;235;27082;-67
2022/08/07 10:37:19;;;;;;;1.35;1.10;;;22.60;39.30;;;;;;612512;234;26826;-67
2022/08/07 10:40:08;;;;;;;1.80;1.12;;;22.70;39.20;;;;;;605700;234;26858;-67
2022/08/07 10:42:40;;;;;;;2.03;1.20;;;23.10;39.80;;;;;;630775;225;26585;-68
2022/08/07 10:45:27;;;;;;;2.25;1.17;;;23.10;39.80;;;;;;628803;225;26815;-68
2022/08/07 10:48:17;;;;;;;2.17;1.30;;;23.40;38.40;;;;;;629396;226;26549;-66
2022/08/07 10:50:48;;;;;;;1.00;1.00;;;23.90;39.20;;;;;;613052;234;26581;-66
2022/08/07 10:53:25;;;;;;;1.50;1.10;;;23.90;39.20;;;;;;612535;234;26563;-69
2022/08/07 10:55:56;;;;;;;1.15;0.82;;;24.20;39.40;;;;;;632891;225;26512;-67
2022/08/07 10:58:25;;;;;;;1.33;1.20;;;24.40;36.70;;;;;;619985;230;26764;-66
2022/08/07 11:00:55;;;;;;;1.20;1.10;;;24.50;38.50;;;;;;616061;230;26579;-67
2022/08/07 11:03:26;;;;;;;2.05;1.20;;;24.80;38.30;;;;;;616562;227;26854;-66
2022/08/07 11:05:55;;;;;;;2.75;0.90;;;24.80;38.00;;;;;;617486;230;26584;-66
2022/08/07 11:08:29;;;;;;;1.77;0.95;;;24.80;37.00;;;;;;613896;231;26588;-70
2022/08/07 11:11:02;;;;;;;4.37;1.40;;;25.00;37.70;;;;;;627334;227;26541;-70
2022/08/07 11:13:32;;;;;;;1.20;1.10;;;25.00;37.30;;;;;;629809;226;26651;-68
2022/08/07 11:16:00;;;;;;;0.90;0.90;;;25.10;36.90;;;;;;626340;227;26520;-69
2022/08/07 11:18:29;;;;;;;0.93;0.90;;;25.20;35.10;;;;;;629745;225;26565;-69
2022/08/07 11:20:58;;;;;;;1.00;1.00;;;25.20;35.70;;;;;;631593;225;26585;-70
2022/08/07 11:23:28;;;;;;;0.90;0.90;;;25.20;35.60;;;;;;629044;225;26948;-68
2022/08/07 11:25:58;;;;;;;0.90;0.90;;;25.20;35.60;;;;;;627524;226;26807;-68
2022/08/07 11:28:25;;;;;;;0.80;0.80;;;25.30;34.80;;;;;;626522;227;26798;-68
2022/08/07 11:31:12;;;;;;;3.55;1.15;;;25.30;34.90;;;;;;626274;227;26871;-69
2022/08/07 11:33:45;;;;;;;1.75;1.12;;;25.40;34.40;;;;;;625217;228;26791;-69
2022/08/07 11:36:31;;;;;;;1.23;1.12;;;25.40;34.40;;;;;;627857;227;26629;-69
2022/08/07 11:39:25;;;;;;;1.00;1.00;;;25.40;34.40;;;;;;628162;226;26822;-69
2022/08/07 11:41:56;;;;;;;0.90;0.90;;;25.60;34.90;;;;;;622858;225;26573;-68
2022/08/07 11:44:40;;;;;;;1.12;1.02;;;25.80;34.60;;;;;;628063;227;26608;-69
2022/08/07 11:47:17;;;;;;;1.20;1.20;;;25.90;34.30;;;;;;621536;225;26829;-69
2022/08/07 11:49:55;;;;;;;3.55;1.23;;;25.50;34.90;;;;;;626740;227;26572;-69
2022/08/07 11:52:30;;;;;;;1.42;1.12;;;25.50;34.90;;;;;;627171;227;26823;-69
2022/08/07 11:55:01;;;;;;;0.98;0.90;;;25.50;34.60;;;;;;628046;227;26832;-67
2022/08/07 11:57:32;;;;;;;2.40;1.30;;;25.90;35.40;;;;;;627984;226;26622;-69
2022/08/07 12:00:15;;;;;;;1.65;1.20;;;26.30;35.20;;;;;;629485;226;26823;-70
2022/08/07 12:02:46;;;;;;;1.15;1.15;;;26.70;35.00;;;;;;628707;225;26656;-70
2022/08/07 12:05:17;;;;;;;1.10;1.02;;;26.80;35.20;;;;;;611609;234;26788;-69
2022/08/07 12:07:45;;;;;;;1.80;1.02;;;27.00;35.40;;;;;;629603;226;26799;-68
2022/08/07 12:10:19;;;;;;;2.25;1.00;;;26.90;34.90;;;;;;628020;227;26605;-69
2022/08/07 12:12:46;;;;;;;1.55;1.25;;;26.90;35.00;;;;;;629381;225;26562;-70
2022/08/07 12:15:15;;;;;;;3.05;1.20;;;26.80;34.60;;;;;;612176;234;26621;-67
2022/08/07 12:17:45;;;;;;;3.08;1.10;;;26.80;34.60;;;;;;630763;226;26584;-66
2022/08/07 12:20:26;;;;;;;1.33;0.98;;;26.90;34.00;;;;;;627002;228;26508;-66
2022/08/07 12:23:02;;;;;;;1.40;0.95;;;27.00;33.90;;;;;;628826;225;26575;-66
2022/08/07 12:28:04;;;;;;;1.17;1.02;;;28.30;32.70;;;;;;629281;226;26609;-66
2022/08/07 12:30:32;;;;;;;1.77;1.30;;;28.60;33.40;;;;;;629005;226;26595;-64
2022/08/07 12:33:05;;;;;;;2.15;1.37;;;28.50;33.20;;;;;;628240;226;26598;-65
2022/08/07 12:35:32;;;;;;;1.27;1.12;;;28.60;31.60;;;;;;631220;225;26605;-65
2022/08/07 12:38:00;;;;;;;3.53;1.12;;;28.40;31.90;;;;;;632764;225;26638;-67
2022/08/07 12:40:27;;;;;;;1.17;1.08;;;28.40;31.90;;;;;;632382;227;26673;-67
2022/08/07 12:42:54;;;;;;;2.75;1.10;;;28.80;32.10;;;;;;628829;226;26611;-67
2022/08/07 12:45:23;;;;;;;1.30;1.20;;;28.70;31.00;;;;;;601271;239;26584;-67
2022/08/07 12:47:58;;;;;;;3.03;1.25;;;28.70;31.00;;;;;;627875;229;26772;-67
2022/08/07 12:50:47;;;;;;;1.35;1.25;;;29.00;31.70;;;;;;624399;230;26797;-67
2022/08/07 12:53:33;;;;;;;1.35;1.20;;;29.70;30.30;;;;;;624403;230;26826;-67
2022/08/07 12:56:03;;;;;;;1.48;1.17;;;30.30;31.00;;;;;;597966;239;26571;-67
2022/08/07 12:58:36;;;;;;;1.67;1.02;;;30.30;31.00;;;;;;601547;239;27075;-67
2022/08/07 13:01:24;;;;;;;1.35;1.25;;;30.00;29.70;;;;;;617652;231;26628;-68
2022/08/07 13:04:13;;;;;;;1.37;1.27;;;29.90;29.90;;;;;;634415;226;26834;-67
2022/08/07 13:06:45;;;;;;;1.10;1.00;;;30.10;30.30;;;;;;624857;226;26590;-67
2022/08/07 13:09:20;;;;;;;2.35;1.23;;;30.50;30.40;;;;;;635444;226;26541;-67